sensor_id;sensor_type;location;lat;lon;timestamp;P1;durP1;ratioP1;P2;durP2;ratioP2
9254;SDS011;4663;49.120;9.730;2022-09-06T00:00:59;34.95;;;33.08;;
9254;SDS011;4663;49.120;9.730;2022-09-06T00:03:24;32.58;;;30.98;;
9254;SDS011;4663;49.120;9.730;2022-09-06T00:05:52;35.55;;;33.63;;
9254;SDS011;4663;49.120;9.730;2022-09-06T00:08:18;35.15;;;33.38;;
9254;SDS011;4663;49.120;9.730;2022-09-06T00:10:43;33.03;;;31.20;;
9254;SDS011;4663;49.120;9.730;2022-09-06T00:13:09;33.20;;;31.42;;
9254;SDS011;4663;49.120;9.730;2022-09-06T00:15:35;34.55;;;32.80;;
9254;SDS011;4663;49.120;9.730;2022-09-06T00:18:02;33.00;;;31.25;;
9254;SDS011;4663;49.120;9.730;2022-09-06T00:20:29;32.03;;;30.45;;
9254;SDS011;4663;49.120;9.730;2022-09-06T00:23:00;32.65;;;31.05;;
9254;SDS011;4663;49.120;9.730;2022-09-06T00:25:28;29.30;;;27.77;;
9254;SDS011;4663;49.120;9.730;2022-09-06T00:27:58;29.90;;;28.17;;
9254;SDS011;4663;49.120;9.730;2022-09-06T00:30:26;26.35;;;24.90;;
9254;SDS011;4663;49.120;9.730;2022-09-06T00:32:53;25.73;;;24.42;;
9254;SDS011;4663;49.120;9.730;2022-09-06T00:35:19;27.10;;;25.42;;
9254;SDS011;4663;49.120;9.730;2022-09-06T00:37:45;26.15;;;24.85;;
9254;SDS011;4663;49.120;9.730;2022-09-06T00:40:11;23.83;;;22.27;;
9254;SDS011;4663;49.120;9.730;2022-09-06T00:42:37;23.30;;;22.10;;
9254;SDS011;4663;49.120;9.730;2022-09-06T00:45:03;24.20;;;22.95;;
9254;SDS011;4663;49.120;9.730;2022-09-06T00:47:31;23.50;;;22.17;;
9254;SDS011;4663;49.120;9.730;2022-09-06T00:50:00;23.55;;;22.05;;
9254;SDS011;4663;49.120;9.730;2022-09-06T00:52:27;23.80;;;22.60;;
9254;SDS011;4663;49.120;9.730;2022-09-06T00:54:53;24.85;;;23.55;;
9254;SDS011;4663;49.120;9.730;2022-09-06T00:57:19;27.17;;;25.80;;
9254;SDS011;4663;49.120;9.730;2022-09-06T00:59:46;27.20;;;25.55;;
9254;SDS011;4663;49.120;9.730;2022-09-06T01:02:12;29.58;;;28.10;;
9254;SDS011;4663;49.120;9.730;2022-09-06T01:04:39;30.00;;;28.45;;
9254;SDS011;4663;49.120;9.730;2022-09-06T01:15:37;36.13;;;34.17;;
9254;SDS011;4663;49.120;9.730;2022-09-06T01:18:54;39.05;;;36.80;;
9254;SDS011;4663;49.120;9.730;2022-09-06T01:21:40;38.03;;;36.10;;
9254;SDS011;4663;49.120;9.730;2022-09-06T01:29:49;35.80;;;33.95;;
9254;SDS011;4663;49.120;9.730;2022-09-06T01:33:00;36.78;;;34.88;;
9254;SDS011;4663;49.120;9.730;2022-09-06T01:35:29;42.05;;;40.05;;
9254;SDS011;4663;49.120;9.730;2022-09-06T01:38:02;40.08;;;38.00;;
9254;SDS011;4663;49.120;9.730;2022-09-06T01:40:29;40.63;;;38.53;;
9254;SDS011;4663;49.120;9.730;2022-09-06T01:42:54;40.45;;;38.33;;
9254;SDS011;4663;49.120;9.730;2022-09-06T01:45:28;41.53;;;39.47;;
9254;SDS011;4663;49.120;9.730;2022-09-06T01:48:22;42.47;;;40.38;;
9254;SDS011;4663;49.120;9.730;2022-09-06T01:54:15;42.08;;;39.90;;
9254;SDS011;4663;49.120;9.730;2022-09-06T02:07:55;43.88;;;41.70;;
9254;SDS011;4663;49.120;9.730;2022-09-06T02:10:26;42.00;;;39.72;;
9254;SDS011;4663;49.120;9.730;2022-09-06T02:12:56;43.80;;;41.38;;
9254;SDS011;4663;49.120;9.730;2022-09-06T02:15:26;40.45;;;38.45;;
9254;SDS011;4663;49.120;9.730;2022-09-06T02:17:57;42.28;;;40.15;;
9254;SDS011;4663;49.120;9.730;2022-09-06T02:20:28;41.85;;;39.80;;
9254;SDS011;4663;49.120;9.730;2022-09-06T02:22:56;40.75;;;38.67;;
9254;SDS011;4663;49.120;9.730;2022-09-06T02:25:26;40.28;;;38.13;;
9254;SDS011;4663;49.120;9.730;2022-09-06T02:27:57;43.22;;;40.95;;
9254;SDS011;4663;49.120;9.730;2022-09-06T02:30:22;41.22;;;39.20;;
9254;SDS011;4663;49.120;9.730;2022-09-06T02:32:58;43.03;;;40.88;;
9254;SDS011;4663;49.120;9.730;2022-09-06T02:35:28;39.20;;;37.20;;
9254;SDS011;4663;49.120;9.730;2022-09-06T02:37:54;41.70;;;39.58;;
9254;SDS011;4663;49.120;9.730;2022-09-06T02:40:20;42.63;;;40.50;;
9254;SDS011;4663;49.120;9.730;2022-09-06T02:42:45;40.88;;;38.78;;
9254;SDS011;4663;49.120;9.730;2022-09-06T02:45:11;43.60;;;41.47;;
9254;SDS011;4663;49.120;9.730;2022-09-06T02:47:37;43.65;;;41.47;;
9254;SDS011;4663;49.120;9.730;2022-09-06T02:50:02;44.75;;;42.30;;
9254;SDS011;4663;49.120;9.730;2022-09-06T02:52:28;45.20;;;42.92;;
9254;SDS011;4663;49.120;9.730;2022-09-06T02:54:53;46.03;;;43.72;;
9254;SDS011;4663;49.120;9.730;2022-09-06T02:57:19;49.25;;;46.67;;
9254;SDS011;4663;49.120;9.730;2022-09-06T02:59:44;45.70;;;43.45;;
9254;SDS011;4663;49.120;9.730;2022-09-06T03:02:10;48.47;;;46.03;;
9254;SDS011;4663;49.120;9.730;2022-09-06T03:04:35;45.88;;;43.63;;
9254;SDS011;4663;49.120;9.730;2022-09-06T03:07:01;40.80;;;38.78;;
9254;SDS011;4663;49.120;9.730;2022-09-06T03:09:26;39.75;;;37.75;;
9254;SDS011;4663;49.120;9.730;2022-09-06T03:11:52;32.80;;;31.15;;
9254;SDS011;4663;49.120;9.730;2022-09-06T03:14:17;31.23;;;29.67;;
9254;SDS011;4663;49.120;9.730;2022-09-06T03:16:43;33.72;;;32.08;;
9254;SDS011;4663;49.120;9.730;2022-09-06T03:19:09;38.00;;;36.15;;
9254;SDS011;4663;49.120;9.730;2022-09-06T03:21:35;39.20;;;37.25;;
9254;SDS011;4663;49.120;9.730;2022-09-06T03:24:00;42.20;;;40.13;;
9254;SDS011;4663;49.120;9.730;2022-09-06T03:26:26;43.78;;;41.55;;
9254;SDS011;4663;49.120;9.730;2022-09-06T03:28:52;44.72;;;42.42;;
9254;SDS011;4663;49.120;9.730;2022-09-06T03:31:17;48.67;;;46.22;;
9254;SDS011;4663;49.120;9.730;2022-09-06T03:33:43;46.53;;;44.25;;
9254;SDS011;4663;49.120;9.730;2022-09-06T03:36:08;50.45;;;47.97;;
9254;SDS011;4663;49.120;9.730;2022-09-06T03:38:34;45.97;;;43.72;;
9254;SDS011;4663;49.120;9.730;2022-09-06T03:40:59;47.13;;;44.67;;
9254;SDS011;4663;49.120;9.730;2022-09-06T03:43:25;44.78;;;42.35;;
9254;SDS011;4663;49.120;9.730;2022-09-06T03:45:52;43.53;;;41.45;;
9254;SDS011;4663;49.120;9.730;2022-09-06T03:48:19;43.45;;;41.17;;
9254;SDS011;4663;49.120;9.730;2022-09-06T03:50:46;43.55;;;41.40;;
9254;SDS011;4663;49.120;9.730;2022-09-06T03:53:13;45.72;;;42.95;;
9254;SDS011;4663;49.120;9.730;2022-09-06T03:55:42;44.78;;;42.40;;
9254;SDS011;4663;49.120;9.730;2022-09-06T03:58:12;42.92;;;40.78;;
9254;SDS011;4663;49.120;9.730;2022-09-06T04:00:37;45.90;;;43.47;;
9254;SDS011;4663;49.120;9.730;2022-09-06T04:03:03;45.25;;;42.97;;
9254;SDS011;4663;49.120;9.730;2022-09-06T04:05:29;44.92;;;42.72;;
9254;SDS011;4663;49.120;9.730;2022-09-06T04:07:54;42.55;;;40.38;;
9254;SDS011;4663;49.120;9.730;2022-09-06T04:10:19;39.78;;;37.78;;
9254;SDS011;4663;49.120;9.730;2022-09-06T04:12:45;41.78;;;39.67;;
9254;SDS011;4663;49.120;9.730;2022-09-06T04:15:10;39.30;;;37.38;;
9254;SDS011;4663;49.120;9.730;2022-09-06T04:17:36;39.47;;;37.53;;
9254;SDS011;4663;49.120;9.730;2022-09-06T04:20:01;39.63;;;37.63;;
9254;SDS011;4663;49.120;9.730;2022-09-06T04:22:28;39.42;;;37.47;;
9254;SDS011;4663;49.120;9.730;2022-09-06T04:24:53;38.80;;;36.78;;
9254;SDS011;4663;49.120;9.730;2022-09-06T04:27:19;37.13;;;35.28;;
9254;SDS011;4663;49.120;9.730;2022-09-06T04:29:44;36.30;;;34.47;;
9254;SDS011;4663;49.120;9.730;2022-09-06T04:32:10;36.92;;;35.08;;
9254;SDS011;4663;49.120;9.730;2022-09-06T04:34:35;34.92;;;33.13;;
9254;SDS011;4663;49.120;9.730;2022-09-06T04:37:00;35.90;;;34.13;;
9254;SDS011;4663;49.120;9.730;2022-09-06T04:39:26;35.63;;;33.80;;
9254;SDS011;4663;49.120;9.730;2022-09-06T04:41:51;46.55;;;44.10;;
9254;SDS011;4663;49.120;9.730;2022-09-06T04:44:17;33.75;;;32.08;;
9254;SDS011;4663;49.120;9.730;2022-09-06T04:46:42;32.75;;;30.95;;
9254;SDS011;4663;49.120;9.730;2022-09-06T04:49:07;31.42;;;29.63;;
9254;SDS011;4663;49.120;9.730;2022-09-06T04:51:33;30.23;;;28.63;;
9254;SDS011;4663;49.120;9.730;2022-09-06T04:53:58;32.17;;;30.42;;
9254;SDS011;4663;49.120;9.730;2022-09-06T04:56:24;31.80;;;30.13;;
9254;SDS011;4663;49.120;9.730;2022-09-06T04:58:51;30.67;;;29.08;;
9254;SDS011;4663;49.120;9.730;2022-09-06T05:01:18;27.13;;;25.67;;
9254;SDS011;4663;49.120;9.730;2022-09-06T05:03:44;28.50;;;27.00;;
9254;SDS011;4663;49.120;9.730;2022-09-06T05:06:23;30.77;;;29.20;;
9254;SDS011;4663;49.120;9.730;2022-09-06T05:08:49;29.65;;;28.05;;
9254;SDS011;4663;49.120;9.730;2022-09-06T05:11:15;28.23;;;26.73;;
9254;SDS011;4663;49.120;9.730;2022-09-06T05:13:41;30.08;;;28.48;;
9254;SDS011;4663;49.120;9.730;2022-09-06T05:16:06;28.83;;;27.25;;
9254;SDS011;4663;49.120;9.730;2022-09-06T05:18:33;28.83;;;27.15;;
9254;SDS011;4663;49.120;9.730;2022-09-06T05:20:59;27.88;;;26.27;;
9254;SDS011;4663;49.120;9.730;2022-09-06T05:23:25;29.33;;;27.52;;
9254;SDS011;4663;49.120;9.730;2022-09-06T05:25:51;29.70;;;28.13;;
9254;SDS011;4663;49.120;9.730;2022-09-06T05:28:16;29.45;;;27.95;;
9254;SDS011;4663;49.120;9.730;2022-09-06T05:30:42;30.98;;;29.15;;
9254;SDS011;4663;49.120;9.730;2022-09-06T05:33:08;31.10;;;29.55;;
9254;SDS011;4663;49.120;9.730;2022-09-06T05:35:34;32.33;;;30.60;;
9254;SDS011;4663;49.120;9.730;2022-09-06T05:37:59;34.50;;;32.72;;
9254;SDS011;4663;49.120;9.730;2022-09-06T05:40:25;31.98;;;30.35;;
9254;SDS011;4663;49.120;9.730;2022-09-06T05:42:50;34.30;;;32.45;;
9254;SDS011;4663;49.120;9.730;2022-09-06T05:45:15;32.25;;;30.45;;
9254;SDS011;4663;49.120;9.730;2022-09-06T05:47:41;33.70;;;31.88;;
9254;SDS011;4663;49.120;9.730;2022-09-06T05:50:07;34.35;;;32.40;;
9254;SDS011;4663;49.120;9.730;2022-09-06T05:52:33;35.03;;;33.25;;
9254;SDS011;4663;49.120;9.730;2022-09-06T05:54:59;33.30;;;31.58;;
9254;SDS011;4663;49.120;9.730;2022-09-06T05:57:25;31.48;;;29.75;;
9254;SDS011;4663;49.120;9.730;2022-09-06T05:59:51;28.95;;;27.45;;
9254;SDS011;4663;49.120;9.730;2022-09-06T06:02:18;31.70;;;30.08;;
9254;SDS011;4663;49.120;9.730;2022-09-06T06:04:46;36.22;;;34.42;;
9254;SDS011;4663;49.120;9.730;2022-09-06T06:07:11;44.67;;;42.42;;
9254;SDS011;4663;49.120;9.730;2022-09-06T06:09:37;40.83;;;38.72;;
9254;SDS011;4663;49.120;9.730;2022-09-06T06:12:03;38.08;;;35.95;;
9254;SDS011;4663;49.120;9.730;2022-09-06T06:14:28;37.63;;;35.78;;
9254;SDS011;4663;49.120;9.730;2022-09-06T06:16:54;38.50;;;36.58;;
9254;SDS011;4663;49.120;9.730;2022-09-06T06:19:19;42.38;;;40.17;;
9254;SDS011;4663;49.120;9.730;2022-09-06T06:21:45;41.22;;;38.95;;
9254;SDS011;4663;49.120;9.730;2022-09-06T06:24:10;41.75;;;39.30;;
9254;SDS011;4663;49.120;9.730;2022-09-06T06:26:36;37.85;;;35.80;;
9254;SDS011;4663;49.120;9.730;2022-09-06T06:29:02;40.22;;;37.92;;
9254;SDS011;4663;49.120;9.730;2022-09-06T06:31:30;43.00;;;40.60;;
9254;SDS011;4663;49.120;9.730;2022-09-06T06:33:56;41.85;;;39.75;;
9254;SDS011;4663;49.120;9.730;2022-09-06T06:36:23;42.33;;;40.13;;
9254;SDS011;4663;49.120;9.730;2022-09-06T06:38:52;42.58;;;40.20;;
9254;SDS011;4663;49.120;9.730;2022-09-06T06:41:20;41.33;;;39.22;;
9254;SDS011;4663;49.120;9.730;2022-09-06T06:43:56;38.38;;;36.35;;
9254;SDS011;4663;49.120;9.730;2022-09-06T06:46:24;36.88;;;34.92;;
9254;SDS011;4663;49.120;9.730;2022-09-06T06:48:51;34.40;;;32.70;;
9254;SDS011;4663;49.120;9.730;2022-09-06T06:51:21;35.20;;;33.30;;
9254;SDS011;4663;49.120;9.730;2022-09-06T06:53:52;34.45;;;32.67;;
9254;SDS011;4663;49.120;9.730;2022-09-06T06:56:21;30.75;;;29.05;;
9254;SDS011;4663;49.120;9.730;2022-09-06T06:58:49;30.27;;;28.70;;
9254;SDS011;4663;49.120;9.730;2022-09-06T07:01:17;30.20;;;28.17;;
9254;SDS011;4663;49.120;9.730;2022-09-06T07:03:47;27.38;;;25.88;;
9254;SDS011;4663;49.120;9.730;2022-09-06T07:06:13;25.30;;;24.00;;
9254;SDS011;4663;49.120;9.730;2022-09-06T07:08:39;25.38;;;23.45;;
9254;SDS011;4663;49.120;9.730;2022-09-06T07:11:06;22.17;;;20.92;;
9254;SDS011;4663;49.120;9.730;2022-09-06T07:13:34;22.48;;;21.15;;
9254;SDS011;4663;49.120;9.730;2022-09-06T07:16:05;23.02;;;21.80;;
9254;SDS011;4663;49.120;9.730;2022-09-06T07:18:39;23.00;;;21.80;;
9254;SDS011;4663;49.120;9.730;2022-09-06T07:21:13;25.52;;;23.90;;
9254;SDS011;4663;49.120;9.730;2022-09-06T07:23:39;24.25;;;22.88;;
9254;SDS011;4663;49.120;9.730;2022-09-06T07:26:05;27.00;;;25.60;;
9254;SDS011;4663;49.120;9.730;2022-09-06T07:28:31;27.27;;;25.88;;
9254;SDS011;4663;49.120;9.730;2022-09-06T07:30:57;26.83;;;25.48;;
9254;SDS011;4663;49.120;9.730;2022-09-06T07:33:23;28.20;;;26.52;;
9254;SDS011;4663;49.120;9.730;2022-09-06T07:35:58;27.13;;;25.63;;
9254;SDS011;4663;49.120;9.730;2022-09-06T07:38:25;25.48;;;24.08;;
9254;SDS011;4663;49.120;9.730;2022-09-06T07:40:56;22.00;;;20.80;;
9254;SDS011;4663;49.120;9.730;2022-09-06T07:43:23;23.98;;;22.75;;
9254;SDS011;4663;49.120;9.730;2022-09-06T07:45:59;26.50;;;25.20;;
9254;SDS011;4663;49.120;9.730;2022-09-06T07:48:29;27.50;;;26.10;;
9254;SDS011;4663;49.120;9.730;2022-09-06T07:51:06;27.88;;;26.35;;
9254;SDS011;4663;49.120;9.730;2022-09-06T07:53:35;28.15;;;26.67;;
9254;SDS011;4663;49.120;9.730;2022-09-06T07:56:02;29.23;;;27.73;;
9254;SDS011;4663;49.120;9.730;2022-09-06T07:58:30;28.83;;;27.25;;
9254;SDS011;4663;49.120;9.730;2022-09-06T08:03:57;30.38;;;28.77;;
9254;SDS011;4663;49.120;9.730;2022-09-06T08:06:24;28.33;;;26.92;;
9254;SDS011;4663;49.120;9.730;2022-09-06T08:08:51;33.83;;;32.22;;
9254;SDS011;4663;49.120;9.730;2022-09-06T08:11:17;34.15;;;32.45;;
9254;SDS011;4663;49.120;9.730;2022-09-06T08:13:44;35.88;;;33.97;;
9254;SDS011;4663;49.120;9.730;2022-09-06T08:16:14;36.90;;;34.80;;
9254;SDS011;4663;49.120;9.730;2022-09-06T08:18:40;29.95;;;28.30;;
9254;SDS011;4663;49.120;9.730;2022-09-06T08:23:36;28.52;;;27.05;;
9254;SDS011;4663;49.120;9.730;2022-09-06T08:26:02;26.85;;;25.40;;
9254;SDS011;4663;49.120;9.730;2022-09-06T08:28:28;29.23;;;27.75;;
9254;SDS011;4663;49.120;9.730;2022-09-06T08:30:53;27.58;;;26.17;;
9254;SDS011;4663;49.120;9.730;2022-09-06T08:33:18;28.42;;;27.05;;
9254;SDS011;4663;49.120;9.730;2022-09-06T08:35:55;25.30;;;23.90;;
9254;SDS011;4663;49.120;9.730;2022-09-06T08:38:22;21.98;;;20.95;;
9254;SDS011;4663;49.120;9.730;2022-09-06T08:40:48;22.83;;;21.60;;
9254;SDS011;4663;49.120;9.730;2022-09-06T08:43:16;27.45;;;26.13;;
9254;SDS011;4663;49.120;9.730;2022-09-06T08:45:48;28.77;;;27.27;;
9254;SDS011;4663;49.120;9.730;2022-09-06T08:48:18;30.75;;;29.08;;
9254;SDS011;4663;49.120;9.730;2022-09-06T08:50:46;32.95;;;31.30;;
9254;SDS011;4663;49.120;9.730;2022-09-06T08:53:25;35.92;;;34.05;;
9254;SDS011;4663;49.120;9.730;2022-09-06T08:55:51;33.83;;;32.17;;
9254;SDS011;4663;49.120;9.730;2022-09-06T09:01:17;34.58;;;32.90;;
9254;SDS011;4663;49.120;9.730;2022-09-06T09:03:47;33.25;;;31.65;;
9254;SDS011;4663;49.120;9.730;2022-09-06T09:06:12;29.92;;;28.42;;
9254;SDS011;4663;49.120;9.730;2022-09-06T09:08:43;25.58;;;24.08;;
9254;SDS011;4663;49.120;9.730;2022-09-06T09:11:25;23.10;;;22.00;;
9254;SDS011;4663;49.120;9.730;2022-09-06T09:13:52;24.45;;;23.25;;
9254;SDS011;4663;49.120;9.730;2022-09-06T09:16:23;22.00;;;20.90;;
9254;SDS011;4663;49.120;9.730;2022-09-06T09:18:50;22.67;;;21.50;;
9254;SDS011;4663;49.120;9.730;2022-09-06T09:21:21;23.50;;;22.30;;
9254;SDS011;4663;49.120;9.730;2022-09-06T09:23:50;23.90;;;22.70;;
9254;SDS011;4663;49.120;9.730;2022-09-06T09:26:18;24.05;;;22.75;;
9254;SDS011;4663;49.120;9.730;2022-09-06T09:29:00;24.50;;;23.30;;
9254;SDS011;4663;49.120;9.730;2022-09-06T09:31:40;24.00;;;22.85;;
9254;SDS011;4663;49.120;9.730;2022-09-06T09:34:12;21.33;;;20.23;;
9254;SDS011;4663;49.120;9.730;2022-09-06T09:37:08;22.30;;;20.95;;
9254;SDS011;4663;49.120;9.730;2022-09-06T09:39:48;22.55;;;21.35;;
9254;SDS011;4663;49.120;9.730;2022-09-06T09:42:22;25.55;;;24.27;;
9254;SDS011;4663;49.120;9.730;2022-09-06T09:44:52;24.80;;;23.60;;
9254;SDS011;4663;49.120;9.730;2022-09-06T09:47:22;27.42;;;25.92;;
9254;SDS011;4663;49.120;9.730;2022-09-06T09:49:51;32.38;;;30.77;;
9254;SDS011;4663;49.120;9.730;2022-09-06T09:52:22;31.25;;;29.70;;
9254;SDS011;4663;49.120;9.730;2022-09-06T09:55:07;28.88;;;27.38;;
9254;SDS011;4663;49.120;9.730;2022-09-06T09:57:44;28.02;;;26.60;;
9254;SDS011;4663;49.120;9.730;2022-09-06T10:00:11;28.92;;;27.45;;
9254;SDS011;4663;49.120;9.730;2022-09-06T10:02:37;29.92;;;28.42;;
9254;SDS011;4663;49.120;9.730;2022-09-06T10:07:40;30.42;;;28.85;;
9254;SDS011;4663;49.120;9.730;2022-09-06T10:10:09;29.90;;;28.42;;
9254;SDS011;4663;49.120;9.730;2022-09-06T10:12:39;31.58;;;30.05;;
9254;SDS011;4663;49.120;9.730;2022-09-06T10:15:06;28.08;;;26.63;;
9254;SDS011;4663;49.120;9.730;2022-09-06T10:17:54;27.58;;;26.20;;
9254;SDS011;4663;49.120;9.730;2022-09-06T10:20:29;27.60;;;26.00;;
9254;SDS011;4663;49.120;9.730;2022-09-06T10:23:21;26.48;;;24.98;;
9254;SDS011;4663;49.120;9.730;2022-09-06T10:26:25;31.00;;;29.38;;
9254;SDS011;4663;49.120;9.730;2022-09-06T10:29:03;28.73;;;27.13;;
9254;SDS011;4663;49.120;9.730;2022-09-06T10:47:43;23.58;;;22.38;;
9254;SDS011;4663;49.120;9.730;2022-09-06T10:50:16;27.23;;;25.92;;
9254;SDS011;4663;49.120;9.730;2022-09-06T10:52:43;27.35;;;25.95;;
9254;SDS011;4663;49.120;9.730;2022-09-06T10:55:13;27.80;;;26.48;;
9254;SDS011;4663;49.120;9.730;2022-09-06T10:57:53;24.70;;;23.25;;
9254;SDS011;4663;49.120;9.730;2022-09-06T11:00:24;25.38;;;24.08;;
9254;SDS011;4663;49.120;9.730;2022-09-06T11:03:03;24.45;;;23.13;;
9254;SDS011;4663;49.120;9.730;2022-09-06T11:05:42;25.10;;;23.90;;
9254;SDS011;4663;49.120;9.730;2022-09-06T11:08:16;25.85;;;24.60;;
9254;SDS011;4663;49.120;9.730;2022-09-06T11:10:44;26.60;;;25.17;;
9254;SDS011;4663;49.120;9.730;2022-09-06T11:13:15;28.17;;;26.70;;
9254;SDS011;4663;49.120;9.730;2022-09-06T11:15:44;28.48;;;26.83;;
9254;SDS011;4663;49.120;9.730;2022-09-06T11:18:31;28.30;;;26.63;;
9254;SDS011;4663;49.120;9.730;2022-09-06T11:24:10;28.98;;;27.58;;
9254;SDS011;4663;49.120;9.730;2022-09-06T11:29:40;24.92;;;23.63;;
9254;SDS011;4663;49.120;9.730;2022-09-06T11:32:28;24.85;;;23.58;;
9254;SDS011;4663;49.120;9.730;2022-09-06T11:34:57;24.15;;;22.95;;
9254;SDS011;4663;49.120;9.730;2022-09-06T11:37:32;24.13;;;22.83;;
9254;SDS011;4663;49.120;9.730;2022-09-06T11:40:13;21.33;;;20.30;;
9254;SDS011;4663;49.120;9.730;2022-09-06T11:47:40;24.70;;;23.50;;
9254;SDS011;4663;49.120;9.730;2022-09-06T11:55:23;26.23;;;24.95;;
9254;SDS011;4663;49.120;9.730;2022-09-06T11:57:55;27.55;;;26.15;;
9254;SDS011;4663;49.120;9.730;2022-09-06T12:00:23;26.80;;;25.45;;
9254;SDS011;4663;49.120;9.730;2022-09-06T12:02:51;26.98;;;25.67;;
9254;SDS011;4663;49.120;9.730;2022-09-06T12:08:13;25.90;;;24.40;;
9254;SDS011;4663;49.120;9.730;2022-09-06T12:10:57;25.80;;;24.55;;
9254;SDS011;4663;49.120;9.730;2022-09-06T12:13:38;26.02;;;24.73;;
9254;SDS011;4663;49.120;9.730;2022-09-06T12:16:06;27.08;;;25.67;;
9254;SDS011;4663;49.120;9.730;2022-09-06T12:23:56;22.55;;;21.45;;
9254;SDS011;4663;49.120;9.730;2022-09-06T12:29:13;20.88;;;19.67;;
9254;SDS011;4663;49.120;9.730;2022-09-06T12:31:41;22.80;;;21.30;;
9254;SDS011;4663;49.120;9.730;2022-09-06T12:34:21;22.48;;;21.35;;
9254;SDS011;4663;49.120;9.730;2022-09-06T12:36:52;22.35;;;21.15;;
9254;SDS011;4663;49.120;9.730;2022-09-06T12:39:22;17.58;;;16.67;;
9254;SDS011;4663;49.120;9.730;2022-09-06T12:41:49;19.60;;;18.60;;
9254;SDS011;4663;49.120;9.730;2022-09-06T12:44:26;19.52;;;18.63;;
9254;SDS011;4663;49.120;9.730;2022-09-06T12:47:36;21.38;;;20.27;;
9254;SDS011;4663;49.120;9.730;2022-09-06T12:53:15;19.27;;;18.38;;
9254;SDS011;4663;49.120;9.730;2022-09-06T12:55:41;19.58;;;18.58;;
9254;SDS011;4663;49.120;9.730;2022-09-06T12:58:08;18.92;;;18.02;;
9254;SDS011;4663;49.120;9.730;2022-09-06T13:00:36;19.52;;;18.48;;
9254;SDS011;4663;49.120;9.730;2022-09-06T13:03:12;19.55;;;18.55;;
9254;SDS011;4663;49.120;9.730;2022-09-06T13:05:51;18.70;;;17.80;;
9254;SDS011;4663;49.120;9.730;2022-09-06T13:08:37;19.52;;;18.63;;
9254;SDS011;4663;49.120;9.730;2022-09-06T13:11:09;20.52;;;19.52;;
9254;SDS011;4663;49.120;9.730;2022-09-06T13:13:45;20.83;;;19.85;;
9254;SDS011;4663;49.120;9.730;2022-09-06T13:16:17;20.30;;;19.25;;
9254;SDS011;4663;49.120;9.730;2022-09-06T13:18:47;21.73;;;20.63;;
9254;SDS011;4663;49.120;9.730;2022-09-06T13:21:22;18.80;;;17.65;;
9254;SDS011;4663;49.120;9.730;2022-09-06T13:23:53;19.73;;;18.77;;
9254;SDS011;4663;49.120;9.730;2022-09-06T13:26:35;22.95;;;21.85;;
9254;SDS011;4663;49.120;9.730;2022-09-06T13:29:36;22.13;;;20.95;;
9254;SDS011;4663;49.120;9.730;2022-09-06T13:31:56;19.80;;;18.88;;
9254;SDS011;4663;49.120;9.730;2022-09-06T13:37:26;20.40;;;19.45;;
9254;SDS011;4663;49.120;9.730;2022-09-06T13:39:44;19.02;;;18.02;;
9254;SDS011;4663;49.120;9.730;2022-09-06T13:42:21;21.27;;;20.17;;
9254;SDS011;4663;49.120;9.730;2022-09-06T13:44:47;19.10;;;18.20;;
9254;SDS011;4663;49.120;9.730;2022-09-06T13:47:12;19.17;;;18.27;;
9254;SDS011;4663;49.120;9.730;2022-09-06T13:49:38;20.27;;;19.17;;
9254;SDS011;4663;49.120;9.730;2022-09-06T13:52:03;19.02;;;18.10;;
9254;SDS011;4663;49.120;9.730;2022-09-06T13:54:29;20.52;;;19.33;;
9254;SDS011;4663;49.120;9.730;2022-09-06T13:56:55;20.45;;;19.27;;
9254;SDS011;4663;49.120;9.730;2022-09-06T13:59:21;21.23;;;20.23;;
9254;SDS011;4663;49.120;9.730;2022-09-06T14:01:49;20.08;;;19.08;;
9254;SDS011;4663;49.120;9.730;2022-09-06T14:04:20;20.52;;;19.52;;
9254;SDS011;4663;49.120;9.730;2022-09-06T14:06:46;19.05;;;18.08;;
9254;SDS011;4663;49.120;9.730;2022-09-06T14:09:12;19.42;;;18.48;;
9254;SDS011;4663;49.120;9.730;2022-09-06T14:11:38;20.88;;;19.67;;
9254;SDS011;4663;49.120;9.730;2022-09-06T14:14:04;20.00;;;19.02;;
9254;SDS011;4663;49.120;9.730;2022-09-06T14:16:30;19.75;;;18.65;;
9254;SDS011;4663;49.120;9.730;2022-09-06T14:18:56;21.15;;;20.15;;
9254;SDS011;4663;49.120;9.730;2022-09-06T14:21:22;20.85;;;19.75;;
9254;SDS011;4663;49.120;9.730;2022-09-06T14:23:50;19.02;;;18.13;;
9254;SDS011;4663;49.120;9.730;2022-09-06T14:26:17;17.73;;;16.83;;
9254;SDS011;4663;49.120;9.730;2022-09-06T14:28:45;19.52;;;18.30;;
9254;SDS011;4663;49.120;9.730;2022-09-06T14:31:11;18.48;;;17.48;;
9254;SDS011;4663;49.120;9.730;2022-09-06T14:33:37;19.73;;;18.67;;
9254;SDS011;4663;49.120;9.730;2022-09-06T14:36:04;19.90;;;18.80;;
9254;SDS011;4663;49.120;9.730;2022-09-06T14:38:34;20.70;;;19.67;;
9254;SDS011;4663;49.120;9.730;2022-09-06T14:41:04;20.73;;;19.13;;
9254;SDS011;4663;49.120;9.730;2022-09-06T14:43:31;18.58;;;17.52;;
9254;SDS011;4663;49.120;9.730;2022-09-06T14:46:07;19.33;;;18.23;;
9254;SDS011;4663;49.120;9.730;2022-09-06T14:48:35;20.38;;;19.38;;
9254;SDS011;4663;49.120;9.730;2022-09-06T14:53:45;19.63;;;18.52;;
9254;SDS011;4663;49.120;9.730;2022-09-06T14:56:12;21.40;;;20.30;;
9254;SDS011;4663;49.120;9.730;2022-09-06T14:58:38;20.00;;;18.90;;
9254;SDS011;4663;49.120;9.730;2022-09-06T15:01:15;20.02;;;18.92;;
9254;SDS011;4663;49.120;9.730;2022-09-06T15:03:47;21.35;;;20.25;;
9254;SDS011;4663;49.120;9.730;2022-09-06T15:06:18;21.88;;;20.60;;
9254;SDS011;4663;49.120;9.730;2022-09-06T15:08:45;20.58;;;19.48;;
9254;SDS011;4663;49.120;9.730;2022-09-06T15:11:12;19.40;;;18.40;;
9254;SDS011;4663;49.120;9.730;2022-09-06T15:13:38;21.92;;;20.70;;
9254;SDS011;4663;49.120;9.730;2022-09-06T15:16:07;19.73;;;18.77;;
9254;SDS011;4663;49.120;9.730;2022-09-06T15:18:34;21.73;;;20.60;;
9254;SDS011;4663;49.120;9.730;2022-09-06T15:21:10;20.00;;;18.98;;
9254;SDS011;4663;49.120;9.730;2022-09-06T15:23:37;21.60;;;20.30;;
9254;SDS011;4663;49.120;9.730;2022-09-06T15:26:04;20.08;;;19.02;;
9254;SDS011;4663;49.120;9.730;2022-09-06T15:28:33;20.75;;;19.75;;
9254;SDS011;4663;49.120;9.730;2022-09-06T15:30:59;21.05;;;20.02;;
9254;SDS011;4663;49.120;9.730;2022-09-06T15:33:28;21.38;;;20.33;;
9254;SDS011;4663;49.120;9.730;2022-09-06T15:35:54;22.50;;;21.35;;
9254;SDS011;4663;49.120;9.730;2022-09-06T15:38:20;21.77;;;20.67;;
9254;SDS011;4663;49.120;9.730;2022-09-06T15:40:45;21.80;;;20.77;;
9254;SDS011;4663;49.120;9.730;2022-09-06T15:43:11;26.33;;;25.00;;
9254;SDS011;4663;49.120;9.730;2022-09-06T15:45:44;24.73;;;23.50;;
9254;SDS011;4663;49.120;9.730;2022-09-06T15:48:14;24.77;;;23.13;;
9254;SDS011;4663;49.120;9.730;2022-09-06T15:50:41;24.73;;;23.50;;
9254;SDS011;4663;49.120;9.730;2022-09-06T15:53:08;27.35;;;25.67;;
9254;SDS011;4663;49.120;9.730;2022-09-06T15:55:33;27.52;;;26.02;;
9254;SDS011;4663;49.120;9.730;2022-09-06T15:58:17;26.73;;;25.38;;
9254;SDS011;4663;49.120;9.730;2022-09-06T16:00:43;26.73;;;25.35;;
9254;SDS011;4663;49.120;9.730;2022-09-06T16:03:08;30.20;;;28.50;;
9254;SDS011;4663;49.120;9.730;2022-09-06T16:05:34;25.75;;;24.38;;
9254;SDS011;4663;49.120;9.730;2022-09-06T16:07:59;28.27;;;26.90;;
9254;SDS011;4663;49.120;9.730;2022-09-06T16:10:25;27.60;;;26.25;;
9254;SDS011;4663;49.120;9.730;2022-09-06T16:12:50;29.00;;;27.58;;
9254;SDS011;4663;49.120;9.730;2022-09-06T16:15:17;29.20;;;27.73;;
9254;SDS011;4663;49.120;9.730;2022-09-06T16:17:42;30.50;;;28.80;;
9254;SDS011;4663;49.120;9.730;2022-09-06T16:20:08;29.70;;;28.20;;
9254;SDS011;4663;49.120;9.730;2022-09-06T16:22:34;29.27;;;27.75;;
9254;SDS011;4663;49.120;9.730;2022-09-06T16:24:59;30.02;;;28.20;;
9254;SDS011;4663;49.120;9.730;2022-09-06T16:27:25;32.28;;;30.63;;
9254;SDS011;4663;49.120;9.730;2022-09-06T16:29:50;31.23;;;29.67;;
9254;SDS011;4663;49.120;9.730;2022-09-06T16:32:16;31.58;;;29.83;;